AirNav   Pilot Hours Calculator
 
 839 users online  

OI64 Bush Field Airport
Thompson, Ohio, USA

GOING TO THOMPSON?


FAA INFORMATION EFFECTIVE 30 JANUARY 2020

Location

FAA Identifier: OI64
Lat/Long: 41-40-50.1930N 081-01-48.8450W
41-40.836550N 081-01.814083W
41.6806092,-81.0302347
(estimated)
Elevation: 1145 ft. / 349 m (estimated)
Variation: 07W (1985)
From city: 1 mile NW of THOMPSON, OH
Time zone: UTC -5 (UTC -4 during Daylight Saving Time)
Zip code: 44086

Airport Operations

Airport use: Private use. Permission required prior to landing
Activation date: 10/1979
Control tower: no
ARTCC: CLEVELAND CENTER
FSS: CLEVELAND FLIGHT SERVICE STATION
Attendance: UNATNDD
Segmented circle: no

Airport Communications

WX ASOS at HZY (16 nm E): 118.325 (440-576-6907)
WX AWOS-3PT at LNN (16 nm W): 119.225 (440-942-0809)

Nearby radio navigation aids

VOR radial/distance  VOR name  Freq  Var
CXRr036/11.5CHARDON VOR/DME112.7005W
JFNr254/13.5JEFFERSON VOR/DME115.2005W
YNGr328/26.4YOUNGSTOWN VORTAC109.0005W
ACOr017/35.2AKRON VOR/DME114.4004W
ERIr244/38.7ERIE VORTAC109.4006W

 
NDB name  Hdg/Dist  Freq  Var  ID
LAKELAND098/15.626308WLQL .-.. --.- .-..

Airport Services

Runway Information

Runway 10/28

Dimensions: 2100 x 150 ft. / 640 x 46 m
Surface: turf
RUNWAY 10  RUNWAY 28
Traffic pattern: leftleft

Airport Ownership and Management from official FAA records

Ownership: Privately-owned
Owner: CARL S. BUSH
7071 LEDGE ST.
THOMPSON, OH 44086
Phone 216-298-3523

Additional Remarks

E111-3 E111 CONT'D: WITH SUF RMNG USBL RWY LENGTH AVBL TO PERMIT SAFE LNDGS & TKOFS BY TYPE ACFT USING THE RWY.
E111-2 E111 CONT'D: SLOPE SFCS WHICH CANNOT BE LOWERED OR REMOVED; THRS SHOULD BE DSPLCD & CLEARLY MKD SO AS TO PRVD A MIN 20:1 APCH CLNC OVER OBSTNS...
FOR CD CTC CLEVELAND APCH AT 216-352-2323

Instrument Procedures

There are no published instrument procedures at OI64.

Some nearby airports with instrument procedures:

2G1 - Concord Airpark (8 nm W)
7G8 - Geauga County Airport (14 nm S)
KHZY - Northeast Ohio Regional Airport (16 nm E)
KLNN - Willoughby Lost Nation Municipal Airport (16 nm W)
KCGF - Cuyahoga County Airport (22 nm W)
 
Loc | Ops | Rwys | IFR | FBO | Links
Com | Nav | Svcs | Stats | Notes
Area around OI64 (Bush Field Airport)
 
Road maps at: MapQuest Bing Google
 
Aerial photo
No photo
 
Sectional chart

 
Airport distance calculator
Flying to Bush Field Airport? Find the distance to fly.

From to OI64

Sunrise and sunset
Times for 20-Feb-2020
 Local
(UTC-5)
 Zulu
(UTC)
Morning civil twilight06:4511:45
Sunrise07:1412:14
Sunset18:0223:02
Evening civil twilight18:3023:30

Current date and time
Zulu (UTC)  21-Feb-2020 04:08:45
Local (UTC-5)  20-Feb-2020 23:08:45
 
METAR
KLNN 
15nm W 
210355Z AUTO 35006KT 10SM OVC038 M05/M14 A3057 RMK AO1 T10531145
KHZY 
16nm NE 
210353Z AUTO 34004KT 10SM BKN037 M07/M14 A3056 RMK AO2 SLP362 T10671139
KCGF 
21nm W 
210345Z 30005KT 10SM BKN040 M06/M13 A3056
KBKL 
30nm W 
210353Z 30011KT 10SM OVC037 M04/M12 A3057 RMK AO2 SLP362 T10441117
KPOV 
30nm S 
210356Z AUTO 00000KT 10SM BKN037 M09/M12 A3054 RMK AO2 T10901122 PWINO
TAF
NOTAMs
Click for the latest NOTAMs
NOTAMs are issued by the DoD/FAA and will open in a separate window not controlled by AirNav.

 

 
 

Would you like to see your business listed on this page?

 If your business provides an interesting product or service to pilots, flight crews, aircraft, or users of the Bush Field Airport, you should consider listing it here.  To start the listing process, click on the button below
 
Add a business
 

Other Pages about Bush Field Airport

Update a link
 
Copyright © AirNav, LLC. All rights reserved. Privacy Policy  Contact